^^
Saratoga-Weather Station Historical Data
Daily Summary for February 17, 2021 Units:  English    Metric   Both
Daily Weekly Monthly Yearly Custom
  High: Low: Average:
Temperature: 62.1 °F 48.2 °F 53.8 °F
Dew Point: 52.2 °F 45.9 °F 48.4 °F
Humidity: 94% 61% 83%
Wind Speed: 13mph 0mph 2mph
Wind Gust: 14mph - -
Wind- - SW
Pressure: 29.7 in 29.5 in -
Precipitation: 0.28 in    
Historical Graphs
 
 
Tabular Data for February 17, 2021
Time Temperature Dew Point Pressure Wind Wind Speed Wind Gust Humidity Rainfall Rate (Hourly) solar
00:04 48.7 °F 46.2 °F 29.7 in NNE 0.9 mph 4 mph 91% 0 in 0 W/m2
00:09 48.7 °F 46.2 °F 29.7 in NNE 0.9 mph 1 mph 91% 0 in 0 W/m2
00:14 48.7 °F 46.2 °F 29.7 in Calm   4 mph 91% 0 in 0 W/m2
00:19 48.7 °F 46.2 °F 29.7 in Calm   4 mph 91% 0 in 0 W/m2
00:24 48.7 °F 46.2 °F 29.7 in Calm   1 mph 91% 0 in 0 W/m2
00:29 48.7 °F 46.2 °F 29.7 in Calm   4 mph 91% 0 in 0 W/m2
00:34 48.7 °F 46.2 °F 29.7 in NNW 2.9 mph 3 mph 91% 0 in 0 W/m2
00:39 48.7 °F 46.2 °F 29.7 in WNW 0.9 mph 4 mph 91% 0 in 0 W/m2
00:44 48.6 °F 46 °F 29.7 in Calm   2 mph 91% 0 in 0 W/m2
00:49 48.6 °F 46 °F 29.7 in Calm   2 mph 91% 0 in 0 W/m2
00:54 48.4 °F 45.9 °F 29.7 in Calm   2 mph 91% 0 in 0 W/m2
00:59 48.4 °F 46.2 °F 29.7 in Calm   2 mph 92% 0 in 0 W/m2
01:04 48.4 °F 46.2 °F 29.7 in WSW 0.9 mph 4 mph 92% 0 in 0 W/m2
01:09 48.4 °F 46.2 °F 29.7 in South 2 mph 3 mph 92% 0 in 0 W/m2
01:14 48.4 °F 46.2 °F 29.7 in NNE 0.9 mph 3 mph 92% 0 in 0 W/m2
01:19 48.6 °F 46.4 °F 29.7 in NNE 0.9 mph 2 mph 92% 0 in 0 W/m2
01:24 48.6 °F 46.4 °F 29.7 in Calm     92% 0 in 0 W/m2
01:29 48.4 °F 46.2 °F 29.7 in North 0.9 mph 2 mph 92% 0 in 0 W/m2
01:34 48.4 °F 46.2 °F 29.7 in NE 0.9 mph 1 mph 92% 0 in 0 W/m2
01:39 48.4 °F 46.2 °F 29.7 in Calm   3 mph 92% 0 in 0 W/m2
01:44 48.4 °F 46.2 °F 29.7 in NNE 0.9 mph 1 mph 92% 0 in 0 W/m2
01:49 48.2 °F 46 °F 29.7 in Calm   1 mph 92% 0 in 0 W/m2
01:54 48.4 °F 46.2 °F 29.7 in Calm   3 mph 92% 0 in 0 W/m2
01:59 48.4 °F 46.2 °F 29.7 in North 0.9 mph 2 mph 92% 0 in 0 W/m2
02:04 48.4 °F 46.2 °F 29.7 in East 2 mph 2 mph 92% 0 in 0 W/m2
02:09 48.4 °F 46.2 °F 29.7 in NW 2.9 mph 4 mph 92% 0 in 0 W/m2
02:14 48.6 °F 46.4 °F 29.7 in Calm   1 mph 92% 0 in 0 W/m2
02:19 48.6 °F 46.6 °F 29.7 in South 2 mph 3 mph 93% 0 in 0 W/m2
02:24 48.6 °F 46.6 °F 29.7 in Calm   1 mph 93% 0 in 0 W/m2
02:29 48.7 °F 46.8 °F 29.7 in ESE 0.9 mph 2 mph 93% 0 in 0 W/m2
02:34 48.7 °F 46.8 °F 29.7 in Calm   2 mph 93% 0 in 0 W/m2
02:39 48.7 °F 46.8 °F 29.7 in Calm   1 mph 93% 0 in 0 W/m2
02:44 48.7 °F 46.8 °F 29.7 in Calm   2 mph 93% 0 in 0 W/m2
02:49 48.7 °F 46.8 °F 29.6 in NW 0.9 mph 3 mph 93% 0 in 0 W/m2
02:54 48.7 °F 46.8 °F 29.6 in Calm   3 mph 93% 0 in 0 W/m2
02:59 48.7 °F 46.8 °F 29.7 in NNW 2 mph 4 mph 93% 0 in 0 W/m2
03:05 48.9 °F 46.9 °F 29.6 in NW 0.9 mph 3 mph 93% 0 in 0 W/m2
03:10 48.9 °F 46.9 °F 29.6 in Calm   2 mph 93% 0 in 0 W/m2
03:15 48.9 °F 46.9 °F 29.6 in NW 0.9 mph 4 mph 93% 0 in 0 W/m2
03:20 48.9 °F 46.9 °F 29.6 in North 2 mph 4 mph 93% 0 in 0 W/m2
03:25 48.9 °F 46.9 °F 29.6 in Calm   3 mph 93% 0 in 0 W/m2
03:30 48.9 °F 46.9 °F 29.6 in Calm   4 mph 93% 0 in 0 W/m2
03:35 48.9 °F 46.9 °F 29.6 in NW 0.9 mph 3 mph 93% 0 in 0 W/m2
03:40 48.7 °F 46.8 °F 29.6 in NNE 0.9 mph 4 mph 93% 0 in 0 W/m2
03:45 48.7 °F 46.8 °F 29.6 in NNE 0.9 mph 1 mph 93% 0 in 0 W/m2
03:50 48.9 °F 46.9 °F 29.6 in Calm   1 mph 93% 0 in 0 W/m2
03:55 48.9 °F 46.9 °F 29.6 in North 0.9 mph 3 mph 93% 0 in 0 W/m2
04:00 48.9 °F 46.9 °F 29.6 in NNW 0.9 mph 2 mph 93% 0 in 0 W/m2
04:05 48.9 °F 46.9 °F 29.6 in Calm   2 mph 93% 0 in 0 W/m2
04:10 49.1 °F 47.1 °F 29.6 in NW 4 mph 7 mph 93% 0 in 0 W/m2
04:15 49.1 °F 47.1 °F 29.6 in Calm   4 mph 93% 0 in 0 W/m2
04:20 49.3 °F 47.3 °F 29.6 in Calm   3 mph 93% 0 in 0 W/m2
04:25 49.3 °F 47.3 °F 29.6 in ENE 0.9 mph 4 mph 93% 0 in 0 W/m2
04:30 49.3 °F 47.3 °F 29.6 in NE 2 mph 3 mph 93% 0 in 0 W/m2
04:35 49.3 °F 47.3 °F 29.6 in NE 0.9 mph 2 mph 93% 0 in 0 W/m2
04:40 49.3 °F 47.3 °F 29.6 in NE 0.9 mph 2 mph 93% 0 in 0 W/m2
04:45 49.5 °F 47.5 °F 29.6 in Calm   1 mph 93% 0.02 in 0 W/m2
04:50 49.5 °F 47.5 °F 29.6 in North 2.9 mph 3 mph 93% 0.02 in 0 W/m2
04:55 49.3 °F 47.3 °F 29.6 in NW 2 mph 2 mph 93% 0.02 in 0 W/m2
05:00 49.3 °F 47.3 °F 29.6 in Calm   4 mph 93% 0.02 in 0 W/m2
05:05 49.3 °F 47.3 °F 29.6 in West 0.9 mph 5 mph 93% 0.02 in 0 W/m2
05:10 49.3 °F 47.3 °F 29.6 in Calm   3 mph 93% 0.02 in 0 W/m2
05:15 49.3 °F 47.3 °F 29.6 in West 0.9 mph 6 mph 93% 0.02 in 0 W/m2
05:20 49.3 °F 47.3 °F 29.6 in Calm   3 mph 93% 0.02 in 0 W/m2
05:25 49.5 °F 47.5 °F 29.6 in North 0.9 mph 6 mph 93% 0.02 in 0 W/m2
05:30 49.5 °F 47.5 °F 29.6 in East 2 mph 6 mph 93% 0.02 in 0 W/m2
05:35 49.5 °F 47.5 °F 29.6 in NE 2.9 mph 3 mph 93% 0.02 in 0 W/m2
05:40 49.5 °F 47.5 °F 29.6 in WNW 6 mph 7 mph 93% 0.02 in 0 W/m2
05:45 49.5 °F 47.5 °F 29.6 in WSW 0.9 mph 2 mph 93% 0.01 in 0 W/m2
05:50 49.3 °F 47.3 °F 29.6 in NNE 0.9 mph 2 mph 93% 0.02 in 0 W/m2
05:55 49.3 °F 47.3 °F 29.6 in NNE 0.9 mph 1 mph 93% 0.02 in 0 W/m2
06:00 49.3 °F 47.3 °F 29.6 in NNE 2 mph 3 mph 93% 0.01 in 0 W/m2
06:05 49.3 °F 47.3 °F 29.6 in WNW 0.9 mph 2 mph 93% 0.01 in 0 W/m2
06:10 49.3 °F 47.3 °F 29.6 in NW 2.9 mph 4 mph 93% 0.01 in 5 W/m2
06:15 49.3 °F 47.3 °F 29.6 in WNW 0.9 mph 4 mph 93% 0.01 in 7 W/m2
06:20 49.5 °F 47.5 °F 29.6 in South 0.9 mph 3 mph 93% 0.01 in 9 W/m2
06:25 49.5 °F 47.5 °F 29.6 in West 2 mph 3 mph 93% 0.01 in 14 W/m2
06:30 49.5 °F 47.5 °F 29.6 in NW 0.9 mph 3 mph 93% 0.01 in 12 W/m2
06:35 49.5 °F 47.5 °F 29.6 in NW 2 mph 6 mph 93% 0.01 in 12 W/m2
06:40 49.5 °F 47.5 °F 29.6 in West 0.9 mph 5 mph 93% 0.01 in 16 W/m2
06:45 49.5 °F 47.8 °F 29.6 in Calm   2 mph 94% 0.01 in 21 W/m2
06:50 49.5 °F 47.5 °F 29.6 in SSW 0.9 mph 5 mph 93% 0 in 21 W/m2
06:55 49.6 °F 47.7 °F 29.6 in WNW 2 mph 5 mph 93% 0 in 28 W/m2
07:00 49.6 °F 47.7 °F 29.6 in West 4 mph 8 mph 93% 0 in 32 W/m2
07:05 49.6 °F 47.7 °F 29.6 in Calm   4 mph 93% 0 in 65 W/m2
07:10 49.6 °F 47.7 °F 29.6 in SSE 0.9 mph 8 mph 93% 0 in 84 W/m2
07:15 49.8 °F 47.8 °F 29.6 in Calm   2 mph 93% 0 in 47 W/m2
07:20 49.8 °F 47.8 °F 29.6 in NNE 0.9 mph 4 mph 93% 0 in 49 W/m2
07:26 50 °F 48 °F 29.6 in Calm   3 mph 93% 0 in 44 W/m2
07:31 50 °F 48 °F 29.7 in ESE 2 mph 5 mph 93% 0 in 44 W/m2
07:36 50 °F 48 °F 29.7 in WSW 2 mph 3 mph 93% 0 in 86 W/m2
07:41 50.2 °F 48.2 °F 29.7 in West 0.9 mph 5 mph 93% 0 in 70 W/m2
07:46 50.4 °F 48.2 °F 29.7 in NNW 2 mph 2 mph 92% 0 in 83 W/m2
07:51 50.4 °F 48.2 °F 29.7 in WSW 2.9 mph 5 mph 92% 0 in 60 W/m2
07:56 50.4 °F 48.2 °F 29.7 in WSW 4 mph 8 mph 92% 0 in 77 W/m2
08:01 50.5 °F 48.4 °F 29.7 in WNW 2.9 mph 8 mph 92% 0 in 156 W/m2
08:06 50.7 °F 48.6 °F 29.7 in West 2.9 mph 6 mph 92% 0 in 77 W/m2
08:11 50.7 °F 48.6 °F 29.7 in WNW 4.9 mph 10 mph 92% 0 in 121 W/m2
08:16 50.9 °F 48.4 °F 29.7 in NW 2.9 mph 9 mph 91% 0 in 172 W/m2
08:21 51.3 °F 48.7 °F 29.7 in West 6 mph 8 mph 91% 0 in 158 W/m2
08:26 51.3 °F 48.4 °F 29.7 in Calm   9 mph 90% 0 in 134 W/m2
08:31 51.4 °F 48.6 °F 29.7 in NW 2 mph 5 mph 90% 0 in 132 W/m2
08:36 51.4 °F 48.6 °F 29.7 in SW 0.9 mph 5 mph 90% 0 in 160 W/m2
08:41 51.4 °F 48.6 °F 29.7 in West 2 mph 6 mph 90% 0 in 188 W/m2
08:46 51.6 °F 48.7 °F 29.7 in WSW 4 mph 4 mph 90% 0 in 234 W/m2
08:51 52 °F 49.1 °F 29.7 in WNW 2 mph 3 mph 90% 0 in 403 W/m2
08:56 52.3 °F 49.3 °F 29.7 in WNW 2 mph 2 mph 89% 0 in 475 W/m2
09:01 52.9 °F 49.6 °F 29.7 in NW 2.9 mph 4 mph 89% 0 in 102 W/m2
09:06 52.5 °F 48.7 °F 29.7 in Calm   3 mph 87% 0 in 76 W/m2
09:11 52.5 °F 49.1 °F 29.7 in Calm   2 mph 88% 0 in 155 W/m2
09:16 52.5 °F 49.1 °F 29.7 in West 2 mph 2 mph 88% 0 in 104 W/m2
09:21 52.3 °F 48.6 °F 29.7 in NE 2 mph 4 mph 87% 0 in 98 W/m2
09:26 52.3 °F 48.9 °F 29.7 in SSW 2.9 mph 3 mph 88% 0 in 111 W/m2
09:31 52.3 °F 48.6 °F 29.7 in WSW 2 mph 8 mph 87% 0 in 519 W/m2
09:36 52.5 °F 49.1 °F 29.7 in WNW 0.9 mph 4 mph 88% 0 in 127 W/m2
09:41 52.5 °F 48.7 °F 29.7 in WNW 2 mph 8 mph 87% 0 in 568 W/m2
09:46 52.9 °F 49.1 °F 29.7 in NW 4.9 mph 7 mph 87% 0 in 225 W/m2
09:51 53.1 °F 48.9 °F 29.7 in WNW 0.9 mph 3 mph 86% 0 in 100 W/m2
09:56 52.9 °F 48.7 °F 29.7 in Calm   6 mph 86% 0 in 98 W/m2
10:01 52.9 °F 48.7 °F 29.7 in West 6 mph 7 mph 86% 0 in 181 W/m2
10:06 53.1 °F 49.3 °F 29.7 in West 2.9 mph 4 mph 87% 0 in 253 W/m2
10:11 53.4 °F 49.3 °F 29.7 in Calm   3 mph 86% 0 in 710 W/m2
10:16 54.1 °F 49.8 °F 29.7 in SE 2 mph 4 mph 85% 0 in 756 W/m2
10:21 54.7 °F 49.3 °F 29.7 in South 0.9 mph 9 mph 82% 0 in 299 W/m2
10:26 55 °F 49.6 °F 29.6 in NNW 0.9 mph 4 mph 82% 0 in 297 W/m2
10:31 55.6 °F 49.5 °F 29.7 in NNW 4.9 mph 9 mph 80% 0 in 796 W/m2
10:36 56.1 °F 50.4 °F 29.6 in WNW 4 mph 4 mph 81% 0 in 749 W/m2
10:41 55.9 °F 49.1 °F 29.6 in NNE 2.9 mph 9 mph 78% 0 in 178 W/m2
10:46 55.2 °F 48.7 °F 29.6 in WNW 4 mph 5 mph 79% 0 in 176 W/m2
10:51 55.2 °F 49.1 °F 29.6 in WNW 2 mph 8 mph 80% 0 in 756 W/m2
10:56 55.8 °F 49.6 °F 29.6 in WSW 6 mph 6 mph 80% 0 in 819 W/m2
11:01 55.9 °F 49.1 °F 29.6 in SW 2 mph 8 mph 78% 0 in 169 W/m2
11:06 55.9 °F 48.9 °F 29.6 in West 2.9 mph 6 mph 77% 0 in 821 W/m2
11:11 56.3 °F 48.9 °F 29.6 in West 0.9 mph 11 mph 76% 0 in 900 W/m2
11:16 56.5 °F 48.7 °F 29.6 in South 2 mph 8 mph 75% 0 in 195 W/m2
11:21 56.1 °F 48 °F 29.6 in NW 2 mph 8 mph 74% 0 in 236 W/m2
11:26 55.9 °F 48.2 °F 29.6 in ESE 2.9 mph 3 mph 75% 0 in 141 W/m2
11:31 55.8 °F 47.7 °F 29.6 in West 2.9 mph 8 mph 74% 0 in 236 W/m2
11:36 55.8 °F 47.7 °F 29.6 in NW 8.1 mph 8 mph 74% 0 in 949 W/m2
11:41 56.3 °F 48.2 °F 29.6 in West 4 mph 8 mph 74% 0 in 1021 W/m2
11:46 56.8 °F 47.8 °F 29.6 in West 6 mph 8 mph 72% 0 in 323 W/m2
11:51 57 °F 47.3 °F 29.6 in WNW 4.9 mph 14 mph 70% 0 in 287 W/m2
11:56 56.8 °F 47.8 °F 29.6 in North 4 mph 7 mph 72% 0 in 308 W/m2
12:01 56.8 °F 48.2 °F 29.6 in NW 2.9 mph 14 mph 73% 0 in 192 W/m2
12:06 56.8 °F 47.8 °F 29.6 in North 4 mph 8 mph 72% 0 in 218 W/m2
12:11 57 °F 48.4 °F 29.6 in West 2 mph 4 mph 73% 0 in 926 W/m2
12:16 57.6 °F 48.6 °F 29.6 in WSW 2 mph 7 mph 72% 0 in 192 W/m2
12:21 57.6 °F 47.8 °F 29.6 in NW 4 mph 8 mph 70% 0 in 357 W/m2
12:26 57.9 °F 48.6 °F 29.6 in SW 2.9 mph 4 mph 71% 0 in 1109 W/m2
12:31 57.9 °F 47.8 °F 29.6 in NW 4 mph 6 mph 69% 0 in 415 W/m2
12:36 57.7 °F 47.7 °F 29.6 in Calm   5 mph 69% 0 in 318 W/m2
12:41 57.9 °F 47.8 °F 29.6 in West 6 mph 6 mph 69% 0 in 265 W/m2
12:46 57.7 °F 48 °F 29.6 in SW 6 mph 9 mph 70% 0 in 255 W/m2
12:51 57.7 °F 47.7 °F 29.6 in SW 2.9 mph 6 mph 69% 0 in 206 W/m2
12:56 57.7 °F 48.4 °F 29.6 in ESE 8 mph 8 mph 71% 0 in 294 W/m2
13:01 58.1 °F 48.4 °F 29.6 in WNW 0.9 mph 6 mph 70% 0 in 279 W/m2
13:06 58.1 °F 47.7 °F 29.6 in West 2 mph 7 mph 68% 0 in 294 W/m2
13:11 57.9 °F 47.8 °F 29.6 in NNW 2.9 mph 9 mph 69% 0 in 255 W/m2
13:16 58.3 °F 47.8 °F 29.6 in West 6.9 mph 8 mph 68% 0 in 745 W/m2
13:21 58.6 °F 47.3 °F 29.6 in NW 6 mph 9 mph 66% 0 in 415 W/m2
13:26 59 °F 47.3 °F 29.6 in NNW 8.1 mph 8 mph 65% 0 in 415 W/m2
13:31 59.4 °F 48 °F 29.6 in WSW 2 mph 5 mph 66% 0 in 415 W/m2
13:36 59.7 °F 48.4 °F 29.6 in SW 2 mph 4 mph 66% 0 in 422 W/m2
13:41 60.1 °F 48.2 °F 29.6 in North 2.9 mph 3 mph 65% 0 in 332 W/m2
13:46 60.1 °F 47.8 °F 29.6 in ENE 2.9 mph 13 mph 64% 0 in 353 W/m2
13:51 59.7 °F 48 °F 29.6 in WSW 4.9 mph 8 mph 65% 0 in 450 W/m2
13:56 59.7 °F 48 °F 29.6 in ENE 0.9 mph 13 mph 65% 0 in 362 W/m2
14:01 59.5 °F 47.8 °F 29.6 in NNW 2 mph 5 mph 65% 0 in 211 W/m2
14:06 59.4 °F 48.4 °F 29.6 in ENE 2.9 mph 7 mph 67% 0 in 183 W/m2
14:11 59.4 °F 49.6 °F 29.6 in Calm   3 mph 70% 0 in 422 W/m2
14:16 59.5 °F 49.8 °F 29.6 in WNW 2.9 mph 4 mph 70% 0 in 417 W/m2
14:21 59.5 °F 49.3 °F 29.6 in WNW 7 mph 7 mph 69% 0 in 427 W/m2
14:26 59.7 °F 49.1 °F 29.6 in SSW 4 mph 6 mph 68% 0 in 499 W/m2
14:31 60.1 °F 49.1 °F 29.6 in WSW 2.9 mph 3 mph 67% 0 in 540 W/m2
14:36 60.8 °F 49.5 °F 29.6 in West 4 mph 7 mph 66% 0 in 940 W/m2
14:41 61 °F 48.7 °F 29.6 in West 6.9 mph 11 mph 64% 0 in 236 W/m2
14:46 60.3 °F 48.4 °F 29.6 in NW 4 mph 11 mph 65% 0 in 320 W/m2
14:51 60.1 °F 49.5 °F 29.6 in NW 2 mph 4 mph 68% 0 in 538 W/m2
14:56 60.3 °F 49.6 °F 29.6 in WNW 2 mph 9 mph 68% 0 in 636 W/m2
15:01 60.4 °F 49.5 °F 29.6 in WNW 2 mph 6 mph 67% 0 in 251 W/m2
15:06 60.6 °F 50 °F 29.6 in West 6 mph 9 mph 68% 0 in 339 W/m2
15:11 60.8 °F 49.8 °F 29.6 in NNW 2.9 mph 5 mph 67% 0 in 527 W/m2
15:16 61 °F 49.1 °F 29.6 in ENE 2.9 mph 12 mph 65% 0 in 902 W/m2
15:21 61.5 °F 49.6 °F 29.6 in WNW 4.9 mph 8 mph 65% 0 in 942 W/m2
15:26 62.1 °F 50.2 °F 29.6 in WSW 0.9 mph 12 mph 65% 0 in 178 W/m2
15:31 62.1 °F 48.4 °F 29.6 in ENE 2 mph 5 mph 61% 0 in 185 W/m2
15:36 61.7 °F 48.6 °F 29.6 in East 2 mph 6 mph 62% 0 in 309 W/m2
15:41 61.5 °F 48.4 °F 29.6 in NNE 0.9 mph 4 mph 62% 0 in 160 W/m2
15:46 61.2 °F 47.7 °F 29.6 in WNW 2 mph 5 mph 61% 0 in 329 W/m2
15:52 61.3 °F 48.6 °F 29.6 in WNW 4.9 mph 7 mph 63% 0 in 241 W/m2
15:57 61.3 °F 48.2 °F 29.6 in WSW 4 mph 8 mph 62% 0 in 130 W/m2
16:02 61.2 °F 48.4 °F 29.6 in WNW 2 mph 3 mph 63% 0 in 116 W/m2
16:07 61 °F 48.7 °F 29.6 in West 2.9 mph 8 mph 64% 0 in 77 W/m2
16:12 60.4 °F 48.6 °F 29.6 in West 0.9 mph 4 mph 65% 0 in 56 W/m2
16:17 59.9 °F 49.6 °F 29.6 in NNW 13 mph 13 mph 69% 0 in 74 W/m2
16:22 59 °F 49.6 °F 29.6 in West 6 mph 10 mph 71% 0 in 171 W/m2
16:27 58.3 °F 48.9 °F 29.6 in NW 6.9 mph 7 mph 71% 0 in 373 W/m2
16:32 57.9 °F 49.3 °F 29.6 in WNW 8.9 mph 12 mph 73% 0 in 362 W/m2
16:37 57.7 °F 49.5 °F 29.6 in WNW 8.1 mph 8 mph 74% 0 in 213 W/m2
16:42 57.6 °F 49.6 °F 29.6 in West 0.9 mph 12 mph 75% 0 in 188 W/m2
16:47 57.4 °F 50.2 °F 29.6 in WNW 2 mph 4 mph 77% 0 in 204 W/m2
16:52 56.8 °F 50 °F 29.6 in NW 2.9 mph 9 mph 78% 0 in 255 W/m2
16:57 56.5 °F 50.4 °F 29.6 in WNW 2.9 mph 6 mph 80% 0 in 206 W/m2
17:02 56.3 °F 50.5 °F 29.6 in WNW 4.9 mph 7 mph 81% 0 in 244 W/m2
17:07 56.3 °F 51.3 °F 29.6 in NW 4 mph 4 mph 83% 0 in 255 W/m2
17:12 56.5 °F 51.6 °F 29.6 in WNW 2.9 mph 5 mph 84% 0 in 251 W/m2
17:17 56.7 °F 52.2 °F 29.6 in WNW 2.9 mph 3 mph 85% 0 in 526 W/m2
17:22 57 °F 52.2 °F 29.6 in NNW 2 mph 7 mph 84% 0 in 308 W/m2
17:27 57.2 °F 52.2 °F 29.6 in NW 4.9 mph 10 mph 83% 0 in 287 W/m2
17:32 57.4 °F 49.1 °F 29.6 in WSW 2 mph 7 mph 74% 0 in 246 W/m2
17:37 57.4 °F 49.1 °F 29.6 in Calm   10 mph 74% 0 in 204 W/m2
17:42 57.6 °F 49.6 °F 29.5 in NE 0.9 mph 5 mph 75% 0 in 285 W/m2
17:47 58.3 °F 50.7 °F 29.6 in WNW 0.9 mph 4 mph 76% 0 in 596 W/m2
17:52 58.6 °F 50.4 °F 29.6 in NW 4 mph 7 mph 74% 0 in 262 W/m2
17:57 58.3 °F 49.3 °F 29.6 in West 4 mph 8 mph 72% 0 in 114 W/m2
18:02 57.7 °F 49.5 °F 29.6 in WNW 0.9 mph 4 mph 74% 0 in 153 W/m2
18:07 58.1 °F 49.8 °F 29.6 in NW 2 mph 9 mph 74% 0 in 540 W/m2
18:12 58.6 °F 50 °F 29.6 in West 8.1 mph 8 mph 73% 0 in 127 W/m2
18:17 59 °F 50 °F 29.6 in Calm   3 mph 72% 0 in 227 W/m2
18:22 58.8 °F 50.5 °F 29.6 in SSW 2 mph 4 mph 74% 0 in 135 W/m2
18:27 58.8 °F 49.8 °F 29.6 in West 2.9 mph 6 mph 72% 0 in 455 W/m2
18:32 58.8 °F 50.2 °F 29.5 in Calm   5 mph 73% 0 in 118 W/m2
18:37 58.6 °F 50.4 °F 29.6 in WNW 2 mph 5 mph 74% 0 in 216 W/m2
18:42 58.6 °F 50 °F 29.5 in Calm   4 mph 73% 0 in 408 W/m2
18:47 59.2 °F 50.2 °F 29.5 in NW 0.9 mph 2 mph 72% 0 in 322 W/m2
18:52 59.4 °F 49.6 °F 29.5 in SW 2.9 mph 8 mph 70% 0 in 257 W/m2
18:57 59.2 °F 49.8 °F 29.5 in WSW 0.9 mph 2 mph 71% 0 in 156 W/m2
19:02 58.8 °F 49.8 °F 29.5 in Calm   4 mph 72% 0 in 70 W/m2
19:07 58.6 °F 49.6 °F 29.5 in Calm   1 mph 72% 0 in 260 W/m2
19:12 59.2 °F 50.2 °F 29.5 in WSW 2 mph 2 mph 72% 0 in 236 W/m2
19:17 59.5 °F 50.5 °F 29.5 in NW 0.9 mph 3 mph 72% 0 in 246 W/m2
19:22 60.1 °F 49.8 °F 29.5 in WNW 2 mph 4 mph 69% 0 in 258 W/m2
19:27 60.3 °F 49.6 °F 29.5 in WNW 0.9 mph 6 mph 68% 0 in 264 W/m2
19:32 60.3 °F 50 °F 29.5 in West 2.9 mph 5 mph 69% 0 in 227 W/m2
19:37 60.4 °F 50.2 °F 29.5 in West 0.9 mph 3 mph 69% 0 in 246 W/m2
19:42 59.9 °F 49.6 °F 29.5 in East 6 mph 6 mph 69% 0 in 49 W/m2
19:47 59.2 °F 49.8 °F 29.5 in NW 2 mph 8 mph 71% 0 in 46 W/m2
19:52 58.6 °F 50 °F 29.6 in Calm   2 mph 73% 0 in 42 W/m2
19:57 58.3 °F 49.6 °F 29.6 in NNW 0.9 mph 7 mph 73% 0 in 63 W/m2
20:02 58.1 °F 49.8 °F 29.6 in West 2 mph 3 mph 74% 0 in 56 W/m2
20:07 57.7 °F 49.8 °F 29.6 in WNW 0.9 mph 1 mph 75% 0 in 23 W/m2
20:12 57.7 °F 49.8 °F 29.6 in SSW 0.9 mph 3 mph 75% 0 in 16 W/m2
20:17 57.6 °F 50 °F 29.6 in Calm   2 mph 76% 0 in 16 W/m2
20:22 57.4 °F 50.2 °F 29.6 in Calm   2 mph 77% 0 in 21 W/m2
20:27 57 °F 50.2 °F 29.6 in SSW 0.9 mph 1 mph 78% 0 in 19 W/m2
20:32 56.8 °F 50.4 °F 29.6 in Calm     79% 0 in 14 W/m2
20:37 56.7 °F 50.2 °F 29.6 in Calm   1 mph 79% 0 in 9 W/m2
20:42 56.3 °F 50.2 °F 29.6 in Calm     80% 0 in 5 W/m2
20:47 56.1 °F 50 °F 29.6 in SSW 0.9 mph 3 mph 80% 0.01 in 0 W/m2
20:52 55.8 °F 50.4 °F 29.6 in West 2.9 mph 3 mph 82% 0.12 in 0 W/m2
20:57 55 °F 50.4 °F 29.6 in NE 0.9 mph 2 mph 84% 0.14 in 0 W/m2
21:02 54.3 °F 50.2 °F 29.6 in WNW 2 mph 3 mph 86% 0.14 in 0 W/m2
21:07 54.1 °F 50.4 °F 29.6 in NW 4 mph 6 mph 87% 0.15 in 0 W/m2
21:12 54.1 °F 50.7 °F 29.6 in Calm   2 mph 88% 0.15 in 0 W/m2
21:17 54 °F 50.5 °F 29.6 in WNW 4.9 mph 8 mph 88% 0.16 in 0 W/m2
21:22 53.4 °F 49.6 °F 29.6 in West 4 mph 8 mph 87% 0.18 in 0 W/m2
21:27 53.1 °F 49.3 °F 29.6 in NW 2 mph 4 mph 87% 0.23 in 0 W/m2
21:32 52.3 °F 48.6 °F 29.6 in Calm   7 mph 87% 0.24 in 0 W/m2
21:37 51.6 °F 48.2 °F 29.6 in Calm   4 mph 88% 0.24 in 0 W/m2
21:42 51.3 °F 47.8 °F 29.6 in West 4 mph 7 mph 88% 0.24 in 0 W/m2
21:47 51.1 °F 48 °F 29.6 in West 0.9 mph 2 mph 89% 0.24 in 0 W/m2
21:52 50.9 °F 47.8 °F 29.6 in West 0.9 mph 2 mph 89% 0.13 in 0 W/m2
21:57 50.7 °F 47.8 °F 29.6 in Calm   2 mph 90% 0.1 in 0 W/m2
22:02 50.5 °F 47.7 °F 29.6 in NW 2 mph 2 mph 90% 0.1 in 0 W/m2
22:07 50.5 °F 48 °F 29.6 in West 2.9 mph 4 mph 91% 0.09 in 0 W/m2
22:12 50.4 °F 47.8 °F 29.6 in West 2.9 mph 3 mph 91% 0.09 in 0 W/m2
22:17 50.2 °F 48 °F 29.6 in Calm   1 mph 92% 0.09 in 0 W/m2
22:22 50.2 °F 48 °F 29.6 in Calm     92% 0.07 in 0 W/m2
22:27 50 °F 47.8 °F 29.6 in Calm   2 mph 92% 0.02 in 0 W/m2
22:32 50.2 °F 48.2 °F 29.6 in ENE 0.9 mph 2 mph 93% 0.02 in 0 W/m2
22:37 50.2 °F 48.2 °F 29.6 in Calm   1 mph 93% 0.02 in 0 W/m2
22:42 50.4 °F 48.4 °F 29.6 in Calm     93% 0.01 in 0 W/m2
22:47 50.4 °F 48.4 °F 29.6 in East 0.9 mph 1 mph 93% 0.01 in 0 W/m2
22:52 50.4 °F 48.4 °F 29.6 in East 0.9 mph 2 mph 93% 0.01 in 0 W/m2
22:57 50.2 °F 48.2 °F 29.6 in Calm   1 mph 93% 0.01 in 0 W/m2
23:02 50.2 °F 48.2 °F 29.6 in Calm   2 mph 93% 0.01 in 0 W/m2
23:07 50.2 °F 48.6 °F 29.6 in Calm   2 mph 94% 0.01 in 0 W/m2
23:12 50.2 °F 48.6 °F 29.6 in Calm   1 mph 94% 0.01 in 0 W/m2
23:17 50.2 °F 48.2 °F 29.6 in North 2 mph 2 mph 93% 0 in 0 W/m2
23:22 50.2 °F 48.6 °F 29.6 in Calm   2 mph 94% 0 in 0 W/m2
23:27 50.4 °F 48.4 °F 29.6 in Calm   2 mph 93% 0 in 0 W/m2
23:32 50.4 °F 48.4 °F 29.6 in Calm   1 mph 93% 0 in 0 W/m2
23:37 50.4 °F 48.4 °F 29.6 in Calm   4 mph 93% 0 in 0 W/m2
23:42 50.4 °F 48.4 °F 29.6 in WNW 2 mph 9 mph 93% 0 in 0 W/m2
23:47 50.4 °F 48.2 °F 29.6 in NW 2 mph 4 mph 92% 0 in 0 W/m2
23:52 50.5 °F 48.4 °F 29.6 in WSW 0.9 mph 8 mph 92% 0 in 0 W/m2
23:57 50.5 °F 48.4 °F 29.6 in West 2 mph 3 mph 92% 0 in 0 W/m2
Juneau County Weather
Compliments of Weather Underground - 4 mb